Holtwood, PA (17532)

4:24 AM EST on December 25, 2014 (GMT -0500)
Mt. Nebo | Change Station
CLOSE
Current Station
Personal Weather Station
Location: Holtwood, PA
Elevation: 843 ft
Nearby Weather Stations

Elev 843 ft 39.88 °N, 76.32 °W | Updated 6 seconds ago

Rain
Rain
47.5 °F
Feels Like 48 °F
N
1.1
Wind Variable Wind from North
Gusts 1.8 mph

Today
High -- | Low -- °F
--% Chance of Precip.
Yesterday
High -- | Low -- °F
Precip. -- in
7:24 AM 4:45 PM
Waxing Crescent, 15% visible
Pressure 29.64 in
Visibility 10.0 miles
Clouds Scattered Clouds 2700 ft
Mostly Cloudy 4400 ft
Overcast 6500 ft
Windchill 48 °F
Dew Point Not available.
Humidity Not available.
Rainfall 0.00 in
Snow Depth Not available.
UV 0 out of 12
Pollen .10 out of 12
Air Quality Not available.
Flu Activity Not available.
SPECI KLNS 250906Z AUTO 29018KT 10SM -RA SCT027 BKN044 OVC065 10/07 A2964 RMK AO2 P0001 T01000067

More Conditions Fewer Conditions

Pressure 29.64 in
Visibility 10.0 miles
Clouds Scattered Clouds 2700 ft
Mostly Cloudy 4400 ft
Overcast 6500 ft
Windchill 48 °F
Dew Point Not available.
Humidity Not available.
Rainfall 0.00 in
Snow Depth Not available.
UV 0 out of 12
Pollen .10 out of 12
Air Quality Not available.
Flu Activity Not available.
SPECI KLNS 250906Z AUTO 29018KT 10SM -RA SCT027 BKN044 OVC065 10/07 A2964 RMK AO2 P0001 T01000067

More Conditions Fewer Conditions

10-Day Weather Forecast

Almanac

Astronomy

Dec. 25, 2014 Rise Set
Actual Time
Civil Twilight
Nautical Twilight
Astronomical Twilight
Moon
Length of Visible Light
Length of Day
Tomorrow will be .
, % of the Moon is Illuminated

Today's Extremes

State Highs State Lows

Community

WunderPhotos

Upload Photos

1,780,252 photos uploaded!

WunderBlogs® & News

Nearby

Air Quality

  Air Quality AQ Index Pollutant
Not available.

Snow Depth

Station Depth Elevation

Earthquake Activity

City Distance Mag. Time & Date
Minimum magnitude displayed is 2.5.

Coastal Water Temperatures

Place Temperature

Nearby Weather Stations